Time;durP1;ratioP1;P1;durP2;ratioP2;P2;SDS_P1;SDS_P2;PMS_P1;PMS_P2;Temp;Humidity;BMP_temperature;BMP_pressure;BME280_temperature;BME280_humidity;BME280_pressure;Samples;Min_cycle;Max_cycle;Signal;HPM_P1;HPM_P2
2023/09/17 00:01:27;;;;;;;6.60;5.28;;;;;;;;;;6288179;22;20007;-54
2023/09/17 00:03:54;;;;;;;10.32;5.97;;;;;;;;;;6288126;22;20011;-53
2023/09/17 00:06:21;;;;;;;6.53;5.55;;;;;;;;;;6288679;22;20013;-48
2023/09/17 00:08:47;;;;;;;9.07;5.75;;;;;;;;;;6288987;22;20015;-52
2023/09/17 00:11:14;;;;;;;7.25;5.75;;;;;;;;;;6289281;22;20054;-57
2023/09/17 00:13:41;;;;;;;7.10;5.35;;;;;;;;;;6289182;22;20015;-48
2023/09/17 00:16:08;;;;;;;9.93;5.90;;;;;;;;;;6289417;22;20010;-46
2023/09/17 00:18:35;;;;;;;13.00;6.10;;;;;;;;;;6289252;22;20011;-53
2023/09/17 00:21:03;;;;;;;13.18;6.13;;;;;;;;;;6289369;22;20026;-49
2023/09/17 00:23:30;;;;;;;11.73;5.93;;;;;;;;;;6289109;22;20008;-52
2023/09/17 00:25:56;;;;;;;8.35;5.90;;;;;;;;;;6289490;22;19999;-53
2023/09/17 00:28:24;;;;;;;9.65;5.78;;;;;;;;;;6289269;22;20011;-53
2023/09/17 00:30:51;;;;;;;6.97;5.43;;;;;;;;;;6289663;22;20134;-49
2023/09/17 00:33:18;;;;;;;8.57;5.78;;;;;;;;;;6289049;22;20027;-47
2023/09/17 00:35:45;;;;;;;9.88;6.22;;;;;;;;;;6289205;22;19991;-52
2023/09/17 00:38:11;;;;;;;8.32;5.93;;;;;;;;;;6289068;22;20057;-48
2023/09/17 00:40:39;;;;;;;8.40;6.32;;;;;;;;;;6288637;22;20254;-51
2023/09/17 00:43:07;;;;;;;6.47;5.88;;;;;;;;;;6288671;22;20143;-50
2023/09/17 00:45:33;;;;;;;11.82;5.72;;;;;;;;;;6288824;22;20004;-50
2023/09/17 00:48:00;;;;;;;10.82;5.55;;;;;;;;;;6288770;22;20023;-46
2023/09/17 00:50:27;;;;;;;9.68;5.40;;;;;;;;;;6288428;22;19987;-50
2023/09/17 00:52:54;;;;;;;9.55;5.97;;;;;;;;;;6288286;22;20014;-55
2023/09/17 00:55:21;;;;;;;7.22;5.68;;;;;;;;;;6288920;22;20030;-51
2023/09/17 00:57:47;;;;;;;7.18;5.50;;;;;;;;;;6288355;22;19999;-46
2023/09/17 01:00:14;;;;;;;8.68;5.43;;;;;;;;;;6288674;22;20003;-54
2023/09/17 01:02:42;;;;;;;9.23;5.63;;;;;;;;;;6288930;22;20016;-51
2023/09/17 01:05:09;;;;;;;9.82;5.32;;;;;;;;;;6288555;22;19996;-48
2023/09/17 01:07:38;;;;;;;7.70;5.90;;;;;;;;;;6288218;22;20004;-46
2023/09/17 01:10:05;;;;;;;7.82;5.55;;;;;;;;;;6288708;22;20243;-55
2023/09/17 01:12:32;;;;;;;7.80;5.32;;;;;;;;;;6288383;22;20004;-52
2023/09/17 01:14:59;;;;;;;7.70;5.28;;;;;;;;;;6288757;22;20014;-48
2023/09/17 01:17:27;;;;;;;7.75;5.18;;;;;;;;;;6288868;22;20055;-43
2023/09/17 01:19:55;;;;;;;10.48;5.95;;;;;;;;;;6288557;22;20003;-44
2023/09/17 01:22:29;;;;;;;12.27;5.80;;;;;;;;;;6288828;22;20264;-48
2023/09/17 01:25:06;;;;;;;12.48;6.07;;;;;;;;;;6288658;22;20156;-46
2023/09/17 01:27:40;;;;;;;11.95;6.00;;;;;;;;;;6288719;22;20000;-44
2023/09/17 01:30:15;;;;;;;8.27;5.40;;;;;;;;;;6288166;22;20015;-47
2023/09/17 01:32:46;;;;;;;11.50;5.70;;;;;;;;;;6288337;22;20063;-50
2023/09/17 01:35:17;;;;;;;8.15;6.20;;;;;;;;;;6288726;22;20069;-51
2023/09/17 01:37:48;;;;;;;9.57;6.38;;;;;;;;;;6288357;22;20217;-49
2023/09/17 01:40:17;;;;;;;14.60;6.20;;;;;;;;;;6288416;22;20069;-47
2023/09/17 01:42:45;;;;;;;9.68;5.63;;;;;;;;;;6288339;22;20234;-49
2023/09/17 01:45:14;;;;;;;9.55;5.95;;;;;;;;;;6288591;22;19992;-52
2023/09/17 01:47:47;;;;;;;11.23;5.80;;;;;;;;;;6288516;22;20004;-45
2023/09/17 01:50:19;;;;;;;7.47;5.45;;;;;;;;;;6288422;22;19996;-48
2023/09/17 01:52:46;;;;;;;7.82;5.28;;;;;;;;;;6288897;22;20007;-51
2023/09/17 01:55:13;;;;;;;9.35;5.55;;;;;;;;;;6288662;22;20015;-51
2023/09/17 01:57:41;;;;;;;9.02;5.10;;;;;;;;;;6288469;22;20003;-49
2023/09/17 02:00:18;;;;;;;7.32;5.68;;;;;;;;;;6288156;22;20160;-46
2023/09/17 02:02:48;;;;;;;8.43;5.90;;;;;;;;;;6288078;22;20007;-46
2023/09/17 02:05:20;;;;;;;9.20;5.95;;;;;;;;;;6288478;22;20008;-49
2023/09/17 02:07:46;;;;;;;;;;;;;;;;;;6287615;22;20052;-51
2023/09/17 02:10:13;;;;;;;11.10;7.43;;;;;;;;;;6287363;22;19941;-44
2023/09/17 02:12:40;;;;;;;13.27;8.05;;;;;;;;;;6288432;22;20004;-50
2023/09/17 02:15:09;;;;;;;10.65;7.10;;;;;;;;;;6288102;22;19996;-49
2023/09/17 02:17:38;;;;;;;13.52;7.30;;;;;;;;;;6287813;22;20003;-51
2023/09/17 02:20:10;;;;;;;9.35;7.00;;;;;;;;;;6287822;22;20003;-49
2023/09/17 02:22:38;;;;;;;10.48;6.85;;;;;;;;;;6287898;22;19996;-45
2023/09/17 02:25:06;;;;;;;8.48;6.35;;;;;;;;;;6287926;22;20175;-49
2023/09/17 02:27:33;;;;;;;11.20;7.45;;;;;;;;;;6287759;22;20003;-48
2023/09/17 02:30:00;;;;;;;10.43;6.75;;;;;;;;;;6287747;22;20004;-48
2023/09/17 02:32:27;;;;;;;10.98;7.38;;;;;;;;;;6288048;22;20015;-49
2023/09/17 02:34:57;;;;;;;10.10;7.00;;;;;;;;;;6287683;22;20030;-49
2023/09/17 02:37:24;;;;;;;9.98;6.70;;;;;;;;;;6288208;22;20055;-52
2023/09/17 02:39:51;;;;;;;12.20;6.78;;;;;;;;;;6287745;22;20045;-48
2023/09/17 02:42:17;;;;;;;8.52;5.97;;;;;;;;;;6288461;22;20004;-45
2023/09/17 02:44:44;;;;;;;10.10;5.82;;;;;;;;;;6288102;22;19996;-47
2023/09/17 02:47:11;;;;;;;9.85;4.95;;;;;;;;;;6288076;22;20003;-48
2023/09/17 02:49:37;;;;;;;7.28;5.10;;;;;;;;;;6287337;22;20003;-52
2023/09/17 02:52:06;;;;;;;8.68;5.15;;;;;;;;;;6288463;22;19996;-49
2023/09/17 02:54:34;;;;;;;7.93;4.80;;;;;;;;;;6287812;22;20019;-50
2023/09/17 02:57:00;;;;;;;6.32;4.75;;;;;;;;;;6287878;22;20183;-48
2023/09/17 02:59:29;;;;;;;8.55;4.40;;;;;;;;;;6287305;22;20000;-53
2023/09/17 03:01:56;;;;;;;11.23;4.88;;;;;;;;;;6288083;22;20011;-51
2023/09/17 03:04:26;;;;;;;8.40;4.80;;;;;;;;;;6287829;22;20288;-47
2023/09/17 03:06:53;;;;;;;8.40;4.72;;;;;;;;;;6287296;22;19998;-48
2023/09/17 03:09:20;;;;;;;7.88;4.45;;;;;;;;;;6287900;22;20008;-49
2023/09/17 03:11:47;;;;;;;7.32;4.30;;;;;;;;;;6288515;22;20051;-52
2023/09/17 03:14:13;;;;;;;6.95;4.30;;;;;;;;;;6288100;22;19996;-52
2023/09/17 03:16:40;;;;;;;6.50;4.32;;;;;;;;;;6288034;22;20045;-51
2023/09/17 03:19:07;;;;;;;6.72;4.38;;;;;;;;;;6287974;22;20018;-50
2023/09/17 03:21:38;;;;;;;5.65;3.97;;;;;;;;;;6287778;22;19999;-51
2023/09/17 03:24:05;;;;;;;5.43;3.92;;;;;;;;;;6287520;22;20063;-45
2023/09/17 03:26:31;;;;;;;5.85;4.32;;;;;;;;;;6288215;22;20051;-47
2023/09/17 03:28:58;;;;;;;4.70;4.18;;;;;;;;;;6287939;22;19992;-45
2023/09/17 03:31:25;;;;;;;7.63;4.00;;;;;;;;;;6287986;22;20012;-50
2023/09/17 03:33:51;;;;;;;7.47;4.05;;;;;;;;;;6287921;22;20004;-48
2023/09/17 03:36:18;;;;;;;6.95;4.90;;;;;;;;;;6288130;22;20014;-44
2023/09/17 03:38:45;;;;;;;7.57;4.40;;;;;;;;;;6287290;22;20012;-47
2023/09/17 03:41:12;;;;;;;6.82;4.20;;;;;;;;;;6287992;22;20220;-49
2023/09/17 03:43:38;;;;;;;5.72;4.30;;;;;;;;;;6287542;22;19999;-49
2023/09/17 03:46:05;;;;;;;6.65;4.22;;;;;;;;;;6287917;22;19999;-53
2023/09/17 03:48:32;;;;;;;5.65;4.03;;;;;;;;;;6287742;22;20004;-50
2023/09/17 03:51:00;;;;;;;6.53;4.35;;;;;;;;;;6287364;22;20153;-51
2023/09/17 03:53:28;;;;;;;5.45;4.15;;;;;;;;;;6287691;22;20137;-53
2023/09/17 03:55:54;;;;;;;6.70;4.10;;;;;;;;;;6287272;22;20173;-54
2023/09/17 03:58:21;;;;;;;11.88;10.07;;;;;;;;;;6287459;22;20047;-53
2023/09/17 04:00:48;;;;;;;15.52;12.82;;;;;;;;;;6287006;22;20014;-48
2023/09/17 04:03:18;;;;;;;12.52;10.90;;;;;;;;;;6286798;22;20000;-50
2023/09/17 04:05:50;;;;;;;11.80;7.75;;;;;;;;;;6287706;22;20042;-50
2023/09/17 04:08:17;;;;;;;9.00;6.32;;;;;;;;;;6287589;22;20260;-48
2023/09/17 04:10:44;;;;;;;7.28;5.43;;;;;;;;;;6288775;22;20006;-46
2023/09/17 04:13:12;;;;;;;7.88;4.95;;;;;;;;;;6289030;22;19999;-48
2023/09/17 04:15:39;;;;;;;6.50;4.55;;;;;;;;;;6288856;22;20003;-51
2023/09/17 04:18:06;;;;;;;6.40;5.07;;;;;;;;;;6289161;22;20325;-49
2023/09/17 04:20:32;;;;;;;9.18;5.00;;;;;;;;;;6288530;22;19992;-48
2023/09/17 04:22:59;;;;;;;6.38;4.53;;;;;;;;;;6288573;22;20008;-50
2023/09/17 04:25:26;;;;;;;6.47;4.15;;;;;;;;;;6288597;22;19995;-45
2023/09/17 04:27:52;;;;;;;6.35;5.07;;;;;;;;;;6288368;22;19992;-46
2023/09/17 04:30:19;;;;;;;5.82;4.70;;;;;;;;;;6287922;22;20330;-47
2023/09/17 04:32:47;;;;;;;6.38;4.85;;;;;;;;;;6288158;22;20059;-50
2023/09/17 04:35:18;;;;;;;6.13;5.10;;;;;;;;;;6288161;22;20034;-45
2023/09/17 04:37:47;;;;;;;6.93;5.00;;;;;;;;;;6287960;22;20069;-45
2023/09/17 04:40:14;;;;;;;9.27;4.90;;;;;;;;;;6288119;22;20220;-46
2023/09/17 04:42:43;;;;;;;9.43;5.07;;;;;;;;;;6288063;22;20011;-45
2023/09/17 04:45:10;;;;;;;7.35;5.28;;;;;;;;;;6289136;22;20004;-49
2023/09/17 04:47:37;;;;;;;7.63;4.55;;;;;;;;;;6289421;22;20051;-51
2023/09/17 04:50:04;;;;;;;7.45;4.47;;;;;;;;;;6289277;22;19988;-45
2023/09/17 04:52:31;;;;;;;7.40;4.72;;;;;;;;;;6289070;22;20169;-49
2023/09/17 04:54:58;;;;;;;7.88;4.18;;;;;;;;;;6289173;22;20335;-45
2023/09/17 04:57:25;;;;;;;10.50;4.65;;;;;;;;;;6289333;22;20006;-45
2023/09/17 04:59:53;;;;;;;5.15;4.65;;;;;;;;;;6289022;22;20008;-47
2023/09/17 05:02:21;;;;;;;5.85;4.60;;;;;;;;;;6289212;22;20004;-46
2023/09/17 05:04:48;;;;;;;5.95;4.28;;;;;;;;;;6288938;22;20260;-49
2023/09/17 05:07:15;;;;;;;6.35;4.47;;;;;;;;;;6289502;22;20004;-48
2023/09/17 05:09:42;;;;;;;6.10;4.10;;;;;;;;;;6288782;22;20049;-48
2023/09/17 05:12:08;;;;;;;6.68;4.32;;;;;;;;;;6289736;22;20086;-47
2023/09/17 05:14:35;;;;;;;6.68;4.05;;;;;;;;;;6288838;22;20012;-48
2023/09/17 05:17:02;;;;;;;8.88;4.40;;;;;;;;;;6289718;22;20260;-48
2023/09/17 05:19:29;;;;;;;8.68;4.72;;;;;;;;;;6288924;22;20144;-46
2023/09/17 05:21:56;;;;;;;7.88;4.32;;;;;;;;;;6289204;22;20004;-48
2023/09/17 05:24:23;;;;;;;6.60;4.47;;;;;;;;;;6288952;22;20232;-44
2023/09/17 05:26:50;;;;;;;8.95;4.40;;;;;;;;;;6289650;22;19987;-47
2023/09/17 05:29:17;;;;;;;6.97;4.40;;;;;;;;;;6288444;22;20008;-46
2023/09/17 05:31:43;;;;;;;7.65;4.22;;;;;;;;;;6289262;22;20065;-45
2023/09/17 05:34:10;;;;;;;10.35;4.25;;;;;;;;;;6288966;22;20002;-45
2023/09/17 05:36:37;;;;;;;10.20;4.72;;;;;;;;;;6289097;22;20027;-46
2023/09/17 05:39:06;;;;;;;6.78;4.22;;;;;;;;;;6288882;22;20003;-50
2023/09/17 05:41:33;;;;;;;5.85;4.72;;;;;;;;;;6288848;22;20019;-45
2023/09/17 05:44:00;;;;;;;11.32;4.75;;;;;;;;;;6288496;22;20004;-44
2023/09/17 05:46:27;;;;;;;8.65;4.68;;;;;;;;;;6289100;22;20235;-46
2023/09/17 05:48:54;;;;;;;7.00;4.53;;;;;;;;;;6288629;22;20048;-45
2023/09/17 05:51:21;;;;;;;5.28;4.40;;;;;;;;;;6288989;22;20003;-43
2023/09/17 05:53:47;;;;;;;5.20;4.40;;;;;;;;;;6288663;22;20007;-50
2023/09/17 05:56:14;;;;;;;6.45;4.50;;;;;;;;;;6289063;22;19991;-47
2023/09/17 05:58:41;;;;;;;60.60;7.70;;;;;;;;;;6288624;22;20030;-46
2023/09/17 06:01:07;;;;;;;66.70;9.60;;;;;;;;;;6288897;22;19999;-45
2023/09/17 06:03:34;;;;;;;30.52;6.57;;;;;;;;;;6288699;22;19999;-45
2023/09/17 06:06:02;;;;;;;22.45;5.57;;;;;;;;;;6287133;22;20000;-48
2023/09/17 06:08:29;;;;;;;11.05;5.00;;;;;;;;;;6285657;22;20011;-49
2023/09/17 06:10:56;;;;;;;15.35;5.38;;;;;;;;;;6286415;22;19991;-44
2023/09/17 06:13:22;;;;;;;8.75;5.00;;;;;;;;;;6287062;22;20008;-49
2023/09/17 06:15:49;;;;;;;11.30;4.97;;;;;;;;;;6287166;22;19999;-51
2023/09/17 06:18:19;;;;;;;10.02;5.10;;;;;;;;;;6286186;22;19996;-49
2023/09/17 06:20:45;;;;;;;9.30;4.75;;;;;;;;;;6286938;22;20284;-46
2023/09/17 06:23:12;;;;;;;8.05;4.95;;;;;;;;;;6286519;22;19999;-52
2023/09/17 06:25:40;;;;;;;7.10;5.00;;;;;;;;;;6286916;22;19994;-53
2023/09/17 06:28:07;;;;;;;7.82;5.60;;;;;;;;;;6287003;22;20003;-54
2023/09/17 06:30:34;;;;;;;6.55;4.93;;;;;;;;;;6287224;22;20016;-49
2023/09/17 06:33:02;;;;;;;9.60;5.50;;;;;;;;;;6287249;22;19995;-49
2023/09/17 06:35:28;;;;;;;6.90;5.32;;;;;;;;;;6287019;22;20003;-49
2023/09/17 06:37:56;;;;;;;8.32;5.40;;;;;;;;;;6287231;22;20052;-45
2023/09/17 06:40:23;;;;;;;8.95;5.53;;;;;;;;;;6287229;22;19992;-49
2023/09/17 06:42:50;;;;;;;7.32;4.70;;;;;;;;;;6286800;22;20055;-43
2023/09/17 06:45:18;;;;;;;6.97;4.53;;;;;;;;;;6286927;22;20000;-46
2023/09/17 06:47:45;;;;;;;7.00;4.95;;;;;;;;;;6286902;22;19996;-50
2023/09/17 06:50:13;;;;;;;10.45;5.50;;;;;;;;;;6286933;22;20012;-48
2023/09/17 06:52:40;;;;;;;9.02;6.20;;;;;;;;;;6287250;22;20199;-49
2023/09/17 06:55:06;;;;;;;9.35;5.47;;;;;;;;;;6287079;22;20340;-46
2023/09/17 06:57:33;;;;;;;5.63;5.10;;;;;;;;;;6286197;22;20011;-55
2023/09/17 07:00:00;;;;;;;9.98;5.22;;;;;;;;;;6287069;22;20000;-50
2023/09/17 07:02:26;;;;;;;6.50;4.60;;;;;;;;;;6286749;22;20129;-49
2023/09/17 07:04:53;;;;;;;9.48;4.60;;;;;;;;;;6286528;22;20042;-52
2023/09/17 07:07:20;;;;;;;7.50;4.35;;;;;;;;;;6287164;22;20030;-51
2023/09/17 07:09:46;;;;;;;5.20;3.97;;;;;;;;;;6286797;22;20039;-47
2023/09/17 07:12:13;;;;;;;6.18;3.95;;;;;;;;;;6287371;22;20191;-47
2023/09/17 07:14:41;;;;;;;6.63;4.28;;;;;;;;;;6287254;22;20022;-44
2023/09/17 07:17:07;;;;;;;5.72;4.10;;;;;;;;;;6287378;22;20038;-52
2023/09/17 07:19:34;;;;;;;5.05;4.22;;;;;;;;;;6286649;22;20011;-52
2023/09/17 07:22:01;;;;;;;7.32;4.22;;;;;;;;;;6287128;22;20007;-51
2023/09/17 07:24:28;;;;;;;7.35;4.15;;;;;;;;;;6286759;22;20041;-47
2023/09/17 07:26:54;;;;;;;6.32;4.03;;;;;;;;;;6287211;22;20211;-53
2023/09/17 07:29:21;;;;;;;6.90;4.20;;;;;;;;;;6286522;22;20007;-51
2023/09/17 07:31:48;;;;;;;4.78;4.07;;;;;;;;;;6286774;22;19996;-47
2023/09/17 07:34:14;;;;;;;9.70;4.43;;;;;;;;;;6286796;22;20008;-50
2023/09/17 07:36:41;;;;;;;7.68;4.03;;;;;;;;;;6287143;22;20051;-45
2023/09/17 07:39:09;;;;;;;5.38;4.03;;;;;;;;;;6287016;22;20207;-48
2023/09/17 07:41:35;;;;;;;6.20;3.85;;;;;;;;;;6286958;22;20007;-51
2023/09/17 07:44:02;;;;;;;8.02;4.00;;;;;;;;;;6287349;22;20299;-47
2023/09/17 07:46:29;;;;;;;8.85;4.22;;;;;;;;;;6289297;22;20267;-51
2023/09/17 07:48:55;;;;;;;7.88;4.07;;;;;;;;;;6288457;22;20008;-46
2023/09/17 07:51:22;;;;;;;5.40;3.97;;;;;;;;;;6289016;22;20045;-52
2023/09/17 07:53:49;;;;;;;6.60;4.32;;;;;;;;;;6288658;22;20076;-46
2023/09/17 07:56:15;;;;;;;18.70;4.80;;;;;;;;;;6289039;22;20003;-56
2023/09/17 07:58:42;;;;;;;11.70;5.35;;;;;;;;;;6288359;22;20008;-44
2023/09/17 08:01:11;;;;;;;16.60;5.28;;;;;;;;;;6288644;22;20046;-44
2023/09/17 08:03:37;;;;;;;19.38;5.68;;;;;;;;;;6288464;22;20027;-47
2023/09/17 08:06:05;;;;;;;15.70;5.35;;;;;;;;;;6288318;22;19995;-46
2023/09/17 08:08:32;;;;;;;14.45;5.25;;;;;;;;;;6288417;22;20324;-48
2023/09/17 08:10:59;;;;;;;8.02;4.72;;;;;;;;;;6288819;22;20098;-48
2023/09/17 08:13:26;;;;;;;13.25;4.65;;;;;;;;;;6288155;22;20007;-53
2023/09/17 08:15:53;;;;;;;12.52;4.35;;;;;;;;;;6288626;22;20022;-54
2023/09/17 08:18:20;;;;;;;10.82;4.40;;;;;;;;;;6288339;22;20067;-56
2023/09/17 08:20:46;;;;;;;6.65;4.15;;;;;;;;;;6288298;22;20153;-54
2023/09/17 08:23:14;;;;;;;15.65;4.43;;;;;;;;;;6288229;22;20098;-48
2023/09/17 08:25:40;;;;;;;88.60;7.95;;;;;;;;;;6288611;22;20003;-46
2023/09/17 08:28:13;;;;;;;28.10;5.60;;;;;;;;;;6288072;22;20046;-53
2023/09/17 08:30:39;;;;;;;18.00;5.15;;;;;;;;;;6288452;22;20215;-44
2023/09/17 08:33:09;;;;;;;10.13;5.00;;;;;;;;;;6288127;22;20018;-45
2023/09/17 08:35:36;;;;;;;106.28;9.77;;;;;;;;;;6288128;22;20004;-44
2023/09/17 08:38:03;;;;;;;65.60;8.93;;;;;;;;;;6288351;22;20003;-49
2023/09/17 08:40:34;;;;;;;75.85;8.77;;;;;;;;;;6288110;22;20007;-48
2023/09/17 08:43:01;;;;;;;60.15;8.10;;;;;;;;;;6288066;22;20003;-50
2023/09/17 08:45:29;;;;;;;28.30;6.30;;;;;;;;;;6288398;22;20168;-50
2023/09/17 08:47:55;;;;;;;18.98;5.38;;;;;;;;;;6288049;22;20015;-45
2023/09/17 08:50:22;;;;;;;15.05;4.82;;;;;;;;;;6288019;22;19996;-53
2023/09/17 08:52:52;;;;;;;17.15;4.75;;;;;;;;;;6288485;22;20087;-48
2023/09/17 08:55:19;;;;;;;13.40;4.57;;;;;;;;;;6287650;22;20046;-46
2023/09/17 08:57:54;;;;;;;12.65;4.15;;;;;;;;;;6288004;22;20218;-53
2023/09/17 09:00:22;;;;;;;12.27;4.05;;;;;;;;;;6288081;22;20191;-52
2023/09/17 09:02:56;;;;;;;11.10;4.68;;;;;;;;;;6287912;22;20000;-47
2023/09/17 09:05:27;;;;;;;9.65;4.85;;;;;;;;;;6287859;22;20046;-49
2023/09/17 09:07:56;;;;;;;10.55;4.90;;;;;;;;;;6287989;22;20169;-46
2023/09/17 09:10:24;;;;;;;9.80;4.57;;;;;;;;;;6286556;22;19984;-44
2023/09/17 09:12:51;;;;;;;7.70;4.25;;;;;;;;;;6288140;22;20004;-45
2023/09/17 09:15:17;;;;;;;7.10;4.43;;;;;;;;;;6287986;22;20060;-49
2023/09/17 09:17:44;;;;;;;10.98;4.47;;;;;;;;;;6287702;22;19992;-49
2023/09/17 09:20:14;;;;;;;7.80;4.40;;;;;;;;;;6287805;22;20047;-48
2023/09/17 09:22:43;;;;;;;8.02;4.38;;;;;;;;;;6287612;22;20015;-50
2023/09/17 09:25:10;;;;;;;9.07;4.53;;;;;;;;;;6287818;22;20049;-54
2023/09/17 09:27:40;;;;;;;8.35;4.60;;;;;;;;;;6287978;22;20023;-49
2023/09/17 09:30:10;;;;;;;9.10;4.60;;;;;;;;;;6287430;22;20203;-52
2023/09/17 09:32:38;;;;;;;8.52;4.68;;;;;;;;;;6287935;22;20200;-52
2023/09/17 09:35:04;;;;;;;6.53;4.75;;;;;;;;;;6287467;22;20010;-49
2023/09/17 09:37:32;;;;;;;6.47;4.47;;;;;;;;;;6287374;22;20004;-55
2023/09/17 09:39:59;;;;;;;7.78;4.88;;;;;;;;;;6287528;22;20010;-55
2023/09/17 09:42:26;;;;;;;7.35;4.70;;;;;;;;;;6287400;22;20008;-57
2023/09/17 09:44:53;;;;;;;6.70;5.00;;;;;;;;;;6287241;22;19999;-57
2023/09/17 09:47:20;;;;;;;6.47;5.05;;;;;;;;;;6287392;22;20335;-57
2023/09/17 09:49:47;;;;;;;7.38;5.18;;;;;;;;;;6285761;22;20003;-52
2023/09/17 09:52:14;;;;;;;6.00;5.00;;;;;;;;;;6286925;22;20019;-52
2023/09/17 09:54:41;;;;;;;8.75;4.88;;;;;;;;;;6286499;22;20027;-52
2023/09/17 09:57:08;;;;;;;7.57;4.57;;;;;;;;;;6287583;22;20058;-56
2023/09/17 09:59:36;;;;;;;5.80;4.30;;;;;;;;;;6286508;22;20007;-53
2023/09/17 10:02:04;;;;;;;7.00;5.00;;;;;;;;;;6286838;22;20016;-51
2023/09/17 10:04:30;;;;;;;7.57;4.60;;;;;;;;;;6287530;22;20000;-54
2023/09/17 10:06:57;;;;;;;9.20;5.13;;;;;;;;;;6287756;22;19988;-48
2023/09/17 10:09:25;;;;;;;11.27;4.70;;;;;;;;;;6285084;22;20322;-52
2023/09/17 10:11:54;;;;;;;6.53;5.30;;;;;;;;;;6287971;22;20058;-51
2023/09/17 10:14:21;;;;;;;8.45;5.25;;;;;;;;;;6286324;22;20003;-50
2023/09/17 10:16:50;;;;;;;12.52;5.70;;;;;;;;;;6288030;22;20067;-51
2023/09/17 10:19:21;;;;;;;7.05;4.97;;;;;;;;;;6285036;22;20191;-46
2023/09/17 10:21:52;;;;;;;9.10;4.90;;;;;;;;;;6287432;22;20051;-49
2023/09/17 10:24:19;;;;;;;8.20;5.40;;;;;;;;;;6287117;22;20067;-48
2023/09/17 10:26:46;;;;;;;8.35;4.90;;;;;;;;;;6287748;22;20202;-49
2023/09/17 10:29:16;;;;;;;9.25;5.45;;;;;;;;;;6286703;22;19992;-47
2023/09/17 10:31:43;;;;;;;7.45;4.60;;;;;;;;;;6287462;22;20204;-50
2023/09/17 10:34:12;;;;;;;11.68;5.18;;;;;;;;;;6285914;22;20041;-49
2023/09/17 10:36:40;;;;;;;15.73;5.35;;;;;;;;;;6287233;22;19995;-51
2023/09/17 10:39:10;;;;;;;10.88;5.15;;;;;;;;;;6287057;22;20012;-50
2023/09/17 10:41:41;;;;;;;12.02;5.28;;;;;;;;;;6287335;22;20211;-50
2023/09/17 10:44:08;;;;;;;15.93;5.13;;;;;;;;;;6287458;22;19996;-50
2023/09/17 10:46:40;;;;;;;11.50;5.03;;;;;;;;;;6287303;22;20003;-49
2023/09/17 10:49:08;;;;;;;8.07;5.23;;;;;;;;;;6285836;22;19996;-50
2023/09/17 10:51:35;;;;;;;7.30;4.70;;;;;;;;;;6287509;22;19996;-46
2023/09/17 10:54:03;;;;;;;7.82;4.55;;;;;;;;;;6286893;22;20034;-43
2023/09/17 10:56:31;;;;;;;7.80;4.47;;;;;;;;;;6286694;22;20042;-43
2023/09/17 10:58:59;;;;;;;11.30;5.05;;;;;;;;;;6287169;22;19996;-44
2023/09/17 11:01:28;;;;;;;5.57;4.70;;;;;;;;;;6287028;22;20004;-44
2023/09/17 11:03:59;;;;;;;9.57;4.97;;;;;;;;;;6286840;22;19998;-46
2023/09/17 11:06:28;;;;;;;7.80;4.93;;;;;;;;;;6287200;22;19994;-45
2023/09/17 11:08:55;;;;;;;7.15;4.55;;;;;;;;;;6287080;22;20038;-47
2023/09/17 11:11:23;;;;;;;7.10;5.15;;;;;;;;;;6287015;22;19995;-48
2023/09/17 11:13:51;;;;;;;9.20;5.05;;;;;;;;;;6286763;22;20031;-49
2023/09/17 11:16:19;;;;;;;9.32;4.70;;;;;;;;;;6287153;22;20004;-45
2023/09/17 11:19:06;;;;;;;9.00;4.55;;;;;;;;;;6287385;22;20006;-45
2023/09/17 11:21:36;;;;;;;9.85;4.57;;;;;;;;;;6289145;22;20191;-50
2023/09/17 11:24:06;;;;;;;9.10;5.03;;;;;;;;;;6288756;22;20353;-45
2023/09/17 11:26:37;;;;;;;7.35;4.88;;;;;;;;;;6289528;22;19988;-50
2023/09/17 11:29:05;;;;;;;12.15;5.20;;;;;;;;;;6288720;22;20041;-46
2023/09/17 11:31:36;;;;;;;6.97;5.20;;;;;;;;;;6289186;22;20045;-47
2023/09/17 11:34:09;;;;;;;10.18;4.88;;;;;;;;;;6288689;22;20012;-47
2023/09/17 11:36:36;;;;;;;11.88;5.05;;;;;;;;;;6288998;22;20010;-43
2023/09/17 11:39:09;;;;;;;8.82;5.18;;;;;;;;;;6288891;22;20302;-49
2023/09/17 11:41:44;;;;;;;13.48;5.30;;;;;;;;;;6289004;22;20064;-44
2023/09/17 11:44:10;;;;;;;12.30;5.00;;;;;;;;;;6288589;22;20366;-46
2023/09/17 11:46:37;;;;;;;9.65;4.80;;;;;;;;;;6289245;22;20003;-43
2023/09/17 11:49:04;;;;;;;8.85;5.35;;;;;;;;;;6288409;22;20203;-43
2023/09/17 11:51:34;;;;;;;8.88;4.93;;;;;;;;;;6262412;22;20003;-49
2023/09/17 11:54:06;;;;;;;8.90;4.88;;;;;;;;;;6288508;22;20049;-44
2023/09/17 11:56:33;;;;;;;6.28;4.80;;;;;;;;;;6288749;22;20235;-50
2023/09/17 11:59:11;;;;;;;6.25;4.50;;;;;;;;;;6288645;22;20011;-50
2023/09/17 12:01:43;;;;;;;11.23;5.28;;;;;;;;;;6288961;22;20004;-54
2023/09/17 12:04:11;;;;;;;8.07;4.95;;;;;;;;;;6288577;22;19995;-50
2023/09/17 12:06:42;;;;;;;7.88;4.63;;;;;;;;;;6288882;22;20004;-48
2023/09/17 12:12:00;;;;;;;8.68;4.60;;;;;;;;;;6290391;22;20058;-47
2023/09/17 12:14:26;;;;;;;4.88;4.38;;;;;;;;;;6288331;22;20230;-47
2023/09/17 12:16:54;;;;;;;8.73;5.10;;;;;;;;;;6288811;22;20012;-48
2023/09/17 12:19:21;;;;;;;6.20;4.50;;;;;;;;;;6288213;22;20015;-51
2023/09/17 12:21:50;;;;;;;7.28;5.13;;;;;;;;;;6288558;22;19999;-54
2023/09/17 12:24:40;;;;;;;7.00;4.32;;;;;;;;;;6288414;22;20241;-53
2023/09/17 12:27:25;;;;;;;6.18;4.90;;;;;;;;;;6288849;22;20204;-59
2023/09/17 12:29:54;;;;;;;7.35;4.60;;;;;;;;;;6288208;22;20008;-57
2023/09/17 12:32:24;;;;;;;9.25;4.85;;;;;;;;;;6288234;22;20060;-51
2023/09/17 12:34:52;;;;;;;6.18;4.30;;;;;;;;;;6288253;22;20000;-53
2023/09/17 12:37:19;;;;;;;6.10;4.50;;;;;;;;;;6288278;22;20027;-52
2023/09/17 12:39:52;;;;;;;5.13;4.35;;;;;;;;;;6288102;22;20030;-55
2023/09/17 12:42:24;;;;;;;6.15;4.30;;;;;;;;;;6288281;22;20010;-56
2023/09/17 12:44:52;;;;;;;5.57;4.47;;;;;;;;;;6287243;22;20188;-59
2023/09/17 12:47:19;;;;;;;7.05;4.90;;;;;;;;;;6287731;22;20000;-57
2023/09/17 12:49:46;;;;;;;5.90;4.65;;;;;;;;;;6261141;22;19992;-55
2023/09/17 12:52:13;;;;;;;7.50;4.78;;;;;;;;;;6288077;22;20015;-52
2023/09/17 12:54:40;;;;;;;5.88;4.90;;;;;;;;;;6288183;22;20035;-59
2023/09/17 12:57:07;;;;;;;7.00;4.78;;;;;;;;;;6288212;22;19991;-50
2023/09/17 12:59:37;;;;;;;6.50;4.72;;;;;;;;;;6287454;22;20030;-48
2023/09/17 13:02:05;;;;;;;6.40;4.60;;;;;;;;;;6287822;22;20175;-56
2023/09/17 13:04:41;;;;;;;5.15;4.65;;;;;;;;;;6287125;22;20183;-49
2023/09/17 13:07:15;;;;;;;5.47;4.65;;;;;;;;;;6286707;22;20022;-50
2023/09/17 13:09:42;;;;;;;7.28;5.25;;;;;;;;;;6287494;22;20007;-47
2023/09/17 13:12:09;;;;;;;7.40;4.72;;;;;;;;;;6288482;22;20004;-51
2023/09/17 13:14:39;;;;;;;6.90;5.07;;;;;;;;;;6287776;22;20003;-54
2023/09/17 13:17:06;;;;;;;5.78;5.00;;;;;;;;;;6288343;22;19992;-49
2023/09/17 13:19:34;;;;;;;7.30;5.45;;;;;;;;;;6287782;22;20011;-51
2023/09/17 13:22:00;;;;;;;5.65;5.07;;;;;;;;;;6288311;22;20063;-49
2023/09/17 13:24:28;;;;;;;5.53;4.82;;;;;;;;;;6287902;22;19992;-48
2023/09/17 13:26:59;;;;;;;7.07;5.65;;;;;;;;;;6288306;22;20000;-51
2023/09/17 13:29:36;;;;;;;6.70;5.53;;;;;;;;;;6287149;22;20008;-46
2023/09/17 13:32:04;;;;;;;6.55;5.25;;;;;;;;;;6288007;22;20004;-46
2023/09/17 13:34:30;;;;;;;7.30;5.82;;;;;;;;;;6287499;22;20054;-49
2023/09/17 13:36:57;;;;;;;6.88;5.50;;;;;;;;;;6288277;22;19991;-52
2023/09/17 13:39:24;;;;;;;12.68;5.68;;;;;;;;;;6287091;22;20014;-53
2023/09/17 13:41:56;;;;;;;8.23;4.63;;;;;;;;;;6287182;22;20000;-43
2023/09/17 13:44:22;;;;;;;6.72;5.00;;;;;;;;;;6287505;22;20006;-50
2023/09/17 13:46:49;;;;;;;5.35;4.82;;;;;;;;;;6288096;22;19999;-45
2023/09/17 13:49:16;;;;;;;4.80;4.40;;;;;;;;;;6287403;22;20007;-52
2023/09/17 13:51:42;;;;;;;7.82;5.10;;;;;;;;;;6288179;22;20176;-48
2023/09/17 13:54:09;;;;;;;8.15;5.13;;;;;;;;;;6287546;22;20008;-49
2023/09/17 13:56:36;;;;;;;7.78;5.20;;;;;;;;;;6287788;22;20014;-56
2023/09/17 13:59:02;;;;;;;6.38;4.97;;;;;;;;;;6287504;22;19995;-50
2023/09/17 14:01:29;;;;;;;7.65;5.10;;;;;;;;;;6287964;22;20011;-46
2023/09/17 14:03:56;;;;;;;6.93;5.05;;;;;;;;;;6287299;22;20000;-46
2023/09/17 14:06:22;;;;;;;7.13;5.28;;;;;;;;;;6287922;22;20187;-51
2023/09/17 14:08:49;;;;;;;7.18;5.10;;;;;;;;;;6287530;22;20004;-49
2023/09/17 14:11:16;;;;;;;9.00;5.50;;;;;;;;;;6287174;22;20000;-47
2023/09/17 14:13:42;;;;;;;8.40;4.97;;;;;;;;;;6287479;22;20010;-47
2023/09/17 14:16:09;;;;;;;6.95;4.60;;;;;;;;;;6287324;22;20010;-48
2023/09/17 14:18:36;;;;;;;5.80;4.18;;;;;;;;;;6287155;22;20003;-51
2023/09/17 14:21:03;;;;;;;11.02;5.40;;;;;;;;;;6285241;22;19991;-50
2023/09/17 14:23:29;;;;;;;5.72;4.78;;;;;;;;;;6284084;22;20004;-55
2023/09/17 14:25:56;;;;;;;6.30;4.90;;;;;;;;;;6286814;22;20011;-46
2023/09/17 14:28:22;;;;;;;6.47;5.25;;;;;;;;;;6287083;22;19999;-47
2023/09/17 14:30:49;;;;;;;6.65;4.47;;;;;;;;;;6287023;22;20012;-47
2023/09/17 14:33:16;;;;;;;11.65;4.72;;;;;;;;;;6286782;22;20012;-49
2023/09/17 14:35:43;;;;;;;6.88;4.78;;;;;;;;;;6287004;22;20010;-47
2023/09/17 14:38:09;;;;;;;4.90;4.40;;;;;;;;;;6286707;22;20011;-46
2023/09/17 14:40:36;;;;;;;4.68;4.28;;;;;;;;;;6286881;22;20003;-56
2023/09/17 14:43:03;;;;;;;5.90;4.40;;;;;;;;;;6286254;22;20009;-45
2023/09/17 14:45:29;;;;;;;6.15;4.28;;;;;;;;;;6286759;22;20010;-48
2023/09/17 14:47:56;;;;;;;5.05;4.60;;;;;;;;;;6286301;22;20011;-52